sensor_id;sensor_type;location;lat;lon;timestamp;P1;durP1;ratioP1;P2;durP2;ratioP2
70337;SDS011;57757;53.198;19.646;2023-04-25T00:00:57;18.70;;;10.60;;
70337;SDS011;57757;53.198;19.646;2023-04-25T00:03:25;16.80;;;10.90;;
70337;SDS011;57757;53.198;19.646;2023-04-25T00:05:53;16.40;;;10.50;;
70337;SDS011;57757;53.198;19.646;2023-04-25T00:08:20;19.20;;;10.70;;
70337;SDS011;57757;53.198;19.646;2023-04-25T00:10:48;17.20;;;11.30;;
70337;SDS011;57757;53.198;19.646;2023-04-25T00:13:16;19.60;;;11.40;;
70337;SDS011;57757;53.198;19.646;2023-04-25T00:15:44;19.40;;;11.70;;
70337;SDS011;57757;53.198;19.646;2023-04-25T00:18:13;21.30;;;12.20;;
70337;SDS011;57757;53.198;19.646;2023-04-25T00:20:42;18.20;;;11.20;;
70337;SDS011;57757;53.198;19.646;2023-04-25T00:23:14;20.50;;;11.50;;
70337;SDS011;57757;53.198;19.646;2023-04-25T00:25:45;18.50;;;12.00;;
70337;SDS011;57757;53.198;19.646;2023-04-25T00:28:15;19.80;;;12.20;;
70337;SDS011;57757;53.198;19.646;2023-04-25T00:30:43;19.30;;;11.60;;
70337;SDS011;57757;53.198;19.646;2023-04-25T00:33:11;18.10;;;10.90;;
70337;SDS011;57757;53.198;19.646;2023-04-25T00:35:38;19.70;;;10.50;;
70337;SDS011;57757;53.198;19.646;2023-04-25T00:38:06;18.50;;;10.90;;
70337;SDS011;57757;53.198;19.646;2023-04-25T00:40:34;18.50;;;11.50;;
70337;SDS011;57757;53.198;19.646;2023-04-25T00:43:02;18.20;;;11.20;;
70337;SDS011;57757;53.198;19.646;2023-04-25T00:45:30;20.00;;;11.30;;
70337;SDS011;57757;53.198;19.646;2023-04-25T00:47:57;19.10;;;10.40;;
70337;SDS011;57757;53.198;19.646;2023-04-25T00:50:26;20.50;;;11.90;;
70337;SDS011;57757;53.198;19.646;2023-04-25T00:52:53;17.30;;;10.30;;
70337;SDS011;57757;53.198;19.646;2023-04-25T00:55:21;16.90;;;9.80;;
70337;SDS011;57757;53.198;19.646;2023-04-25T00:57:50;18.00;;;11.00;;
70337;SDS011;57757;53.198;19.646;2023-04-25T01:00:17;16.00;;;10.60;;
70337;SDS011;57757;53.198;19.646;2023-04-25T01:02:47;18.40;;;11.10;;
70337;SDS011;57757;53.198;19.646;2023-04-25T01:05:17;17.70;;;10.60;;
70337;SDS011;57757;53.198;19.646;2023-04-25T01:07:46;19.00;;;10.80;;
70337;SDS011;57757;53.198;19.646;2023-04-25T01:10:14;16.00;;;9.70;;
70337;SDS011;57757;53.198;19.646;2023-04-25T01:12:42;17.30;;;9.80;;
70337;SDS011;57757;53.198;19.646;2023-04-25T01:15:10;16.20;;;8.70;;
70337;SDS011;57757;53.198;19.646;2023-04-25T01:17:37;15.30;;;9.20;;
70337;SDS011;57757;53.198;19.646;2023-04-25T01:20:06;17.10;;;9.20;;
70337;SDS011;57757;53.198;19.646;2023-04-25T01:22:36;15.80;;;9.50;;
70337;SDS011;57757;53.198;19.646;2023-04-25T01:25:05;16.00;;;9.40;;
70337;SDS011;57757;53.198;19.646;2023-04-25T01:27:35;13.80;;;8.80;;
70337;SDS011;57757;53.198;19.646;2023-04-25T01:30:05;16.30;;;8.90;;
70337;SDS011;57757;53.198;19.646;2023-04-25T01:32:33;16.50;;;9.00;;
70337;SDS011;57757;53.198;19.646;2023-04-25T01:35:08;18.00;;;9.50;;
70337;SDS011;57757;53.198;19.646;2023-04-25T01:37:37;14.10;;;9.00;;
70337;SDS011;57757;53.198;19.646;2023-04-25T01:40:07;16.20;;;8.90;;
70337;SDS011;57757;53.198;19.646;2023-04-25T01:42:39;15.70;;;9.20;;
70337;SDS011;57757;53.198;19.646;2023-04-25T01:45:09;16.10;;;9.40;;
70337;SDS011;57757;53.198;19.646;2023-04-25T01:47:38;14.00;;;8.40;;
70337;SDS011;57757;53.198;19.646;2023-04-25T01:50:07;14.20;;;8.60;;
70337;SDS011;57757;53.198;19.646;2023-04-25T01:52:44;16.10;;;8.40;;
70337;SDS011;57757;53.198;19.646;2023-04-25T01:55:12;14.00;;;8.10;;
70337;SDS011;57757;53.198;19.646;2023-04-25T01:57:40;15.10;;;7.90;;
70337;SDS011;57757;53.198;19.646;2023-04-25T02:00:07;13.90;;;9.00;;
70337;SDS011;57757;53.198;19.646;2023-04-25T02:02:36;16.30;;;10.00;;
70337;SDS011;57757;53.198;19.646;2023-04-25T02:05:04;16.60;;;11.30;;
70337;SDS011;57757;53.198;19.646;2023-04-25T02:07:32;16.80;;;10.10;;
70337;SDS011;57757;53.198;19.646;2023-04-25T02:10:00;13.60;;;7.70;;
70337;SDS011;57757;53.198;19.646;2023-04-25T02:12:28;12.20;;;7.30;;
70337;SDS011;57757;53.198;19.646;2023-04-25T02:14:56;15.30;;;7.50;;
70337;SDS011;57757;53.198;19.646;2023-04-25T02:17:23;13.60;;;7.50;;
70337;SDS011;57757;53.198;19.646;2023-04-25T02:19:51;15.00;;;9.50;;
70337;SDS011;57757;53.198;19.646;2023-04-25T02:22:19;11.90;;;7.20;;
70337;SDS011;57757;53.198;19.646;2023-04-25T02:24:46;11.90;;;7.30;;
70337;SDS011;57757;53.198;19.646;2023-04-25T02:27:14;12.30;;;6.20;;
70337;SDS011;57757;53.198;19.646;2023-04-25T02:29:41;10.60;;;6.10;;
70337;SDS011;57757;53.198;19.646;2023-04-25T02:32:09;11.10;;;6.30;;
70337;SDS011;57757;53.198;19.646;2023-04-25T02:34:37;11.30;;;6.60;;
70337;SDS011;57757;53.198;19.646;2023-04-25T02:37:04;10.60;;;6.20;;
70337;SDS011;57757;53.198;19.646;2023-04-25T02:39:32;11.00;;;5.80;;
70337;SDS011;57757;53.198;19.646;2023-04-25T02:42:00;12.70;;;5.40;;
70337;SDS011;57757;53.198;19.646;2023-04-25T02:44:28;10.40;;;5.70;;
70337;SDS011;57757;53.198;19.646;2023-04-25T02:46:55;12.10;;;5.60;;
70337;SDS011;57757;53.198;19.646;2023-04-25T02:49:23;10.20;;;4.70;;
70337;SDS011;57757;53.198;19.646;2023-04-25T02:51:50;8.50;;;4.30;;
70337;SDS011;57757;53.198;19.646;2023-04-25T02:54:18;9.70;;;4.70;;
70337;SDS011;57757;53.198;19.646;2023-04-25T02:56:45;9.30;;;4.60;;
70337;SDS011;57757;53.198;19.646;2023-04-25T02:59:13;11.50;;;5.10;;
70337;SDS011;57757;53.198;19.646;2023-04-25T03:01:41;10.30;;;4.70;;
70337;SDS011;57757;53.198;19.646;2023-04-25T03:04:08;10.00;;;4.80;;
70337;SDS011;57757;53.198;19.646;2023-04-25T03:06:36;8.70;;;4.70;;
70337;SDS011;57757;53.198;19.646;2023-04-25T03:09:03;9.30;;;4.70;;
70337;SDS011;57757;53.198;19.646;2023-04-25T03:11:31;9.90;;;4.90;;
70337;SDS011;57757;53.198;19.646;2023-04-25T03:13:59;10.10;;;5.40;;
70337;SDS011;57757;53.198;19.646;2023-04-25T03:16:26;10.80;;;5.10;;
70337;SDS011;57757;53.198;19.646;2023-04-25T03:18:54;9.40;;;4.70;;
70337;SDS011;57757;53.198;19.646;2023-04-25T03:21:22;10.20;;;5.50;;
70337;SDS011;57757;53.198;19.646;2023-04-25T03:23:50;11.20;;;5.70;;
70337;SDS011;57757;53.198;19.646;2023-04-25T03:26:18;10.90;;;5.90;;
70337;SDS011;57757;53.198;19.646;2023-04-25T03:28:45;10.20;;;5.90;;
70337;SDS011;57757;53.198;19.646;2023-04-25T03:31:13;12.70;;;6.30;;
70337;SDS011;57757;53.198;19.646;2023-04-25T03:33:40;11.10;;;6.60;;
70337;SDS011;57757;53.198;19.646;2023-04-25T03:36:08;11.10;;;6.80;;
70337;SDS011;57757;53.198;19.646;2023-04-25T03:38:36;13.70;;;7.10;;
70337;SDS011;57757;53.198;19.646;2023-04-25T03:41:04;13.10;;;7.00;;
70337;SDS011;57757;53.198;19.646;2023-04-25T03:43:32;13.20;;;7.30;;
70337;SDS011;57757;53.198;19.646;2023-04-25T03:46:00;12.30;;;7.10;;
70337;SDS011;57757;53.198;19.646;2023-04-25T03:48:28;12.30;;;7.40;;
70337;SDS011;57757;53.198;19.646;2023-04-25T03:50:55;11.30;;;7.00;;
70337;SDS011;57757;53.198;19.646;2023-04-25T03:53:23;11.50;;;7.20;;
70337;SDS011;57757;53.198;19.646;2023-04-25T03:55:52;12.60;;;7.80;;
70337;SDS011;57757;53.198;19.646;2023-04-25T03:58:19;11.70;;;7.40;;
70337;SDS011;57757;53.198;19.646;2023-04-25T04:00:47;13.80;;;6.80;;
70337;SDS011;57757;53.198;19.646;2023-04-25T04:03:14;12.30;;;6.90;;
70337;SDS011;57757;53.198;19.646;2023-04-25T04:05:42;10.70;;;6.30;;
70337;SDS011;57757;53.198;19.646;2023-04-25T04:08:10;12.10;;;6.20;;
70337;SDS011;57757;53.198;19.646;2023-04-25T04:10:37;12.70;;;6.40;;
70337;SDS011;57757;53.198;19.646;2023-04-25T04:13:05;10.70;;;6.50;;
70337;SDS011;57757;53.198;19.646;2023-04-25T04:15:33;11.60;;;6.20;;
70337;SDS011;57757;53.198;19.646;2023-04-25T04:18:00;11.60;;;6.50;;
70337;SDS011;57757;53.198;19.646;2023-04-25T04:20:30;11.60;;;7.10;;
70337;SDS011;57757;53.198;19.646;2023-04-25T04:22:58;11.20;;;7.00;;
70337;SDS011;57757;53.198;19.646;2023-04-25T04:25:25;16.20;;;9.90;;
70337;SDS011;57757;53.198;19.646;2023-04-25T04:27:53;11.60;;;6.80;;
70337;SDS011;57757;53.198;19.646;2023-04-25T04:30:22;11.70;;;6.90;;
70337;SDS011;57757;53.198;19.646;2023-04-25T04:32:52;12.20;;;7.10;;
70337;SDS011;57757;53.198;19.646;2023-04-25T04:35:20;10.70;;;5.00;;
70337;SDS011;57757;53.198;19.646;2023-04-25T04:37:47;12.10;;;6.20;;
70337;SDS011;57757;53.198;19.646;2023-04-25T04:40:15;24.00;;;10.20;;
70337;SDS011;57757;53.198;19.646;2023-04-25T04:42:45;14.30;;;7.50;;
70337;SDS011;57757;53.198;19.646;2023-04-25T04:45:14;14.10;;;6.80;;
70337;SDS011;57757;53.198;19.646;2023-04-25T04:47:43;13.90;;;6.60;;
70337;SDS011;57757;53.198;19.646;2023-04-25T04:50:12;18.80;;;8.10;;
70337;SDS011;57757;53.198;19.646;2023-04-25T04:52:39;18.80;;;8.50;;
70337;SDS011;57757;53.198;19.646;2023-04-25T04:55:07;12.30;;;6.20;;
70337;SDS011;57757;53.198;19.646;2023-04-25T04:57:35;11.20;;;5.20;;
70337;SDS011;57757;53.198;19.646;2023-04-25T05:00:04;10.50;;;5.70;;
70337;SDS011;57757;53.198;19.646;2023-04-25T05:02:38;10.50;;;5.50;;
70337;SDS011;57757;53.198;19.646;2023-04-25T05:05:06;12.40;;;6.20;;
70337;SDS011;57757;53.198;19.646;2023-04-25T05:07:35;12.10;;;5.90;;
70337;SDS011;57757;53.198;19.646;2023-04-25T05:10:03;9.30;;;4.40;;
70337;SDS011;57757;53.198;19.646;2023-04-25T05:12:31;8.90;;;4.00;;
70337;SDS011;57757;53.198;19.646;2023-04-25T05:15:01;11.60;;;4.30;;
70337;SDS011;57757;53.198;19.646;2023-04-25T05:17:29;10.90;;;4.40;;
70337;SDS011;57757;53.198;19.646;2023-04-25T05:19:58;12.10;;;5.00;;
70337;SDS011;57757;53.198;19.646;2023-04-25T05:22:27;9.20;;;4.30;;
70337;SDS011;57757;53.198;19.646;2023-04-25T05:24:54;11.00;;;5.50;;
70337;SDS011;57757;53.198;19.646;2023-04-25T05:29:58;11.10;;;4.00;;
70337;SDS011;57757;53.198;19.646;2023-04-25T05:32:26;10.60;;;5.10;;
70337;SDS011;57757;53.198;19.646;2023-04-25T05:34:54;15.70;;;7.50;;
70337;SDS011;57757;53.198;19.646;2023-04-25T05:37:21;10.00;;;5.20;;
70337;SDS011;57757;53.198;19.646;2023-04-25T05:39:52;15.10;;;7.30;;
70337;SDS011;57757;53.198;19.646;2023-04-25T05:42:20;12.60;;;6.70;;
70337;SDS011;57757;53.198;19.646;2023-04-25T05:44:48;13.10;;;7.10;;
70337;SDS011;57757;53.198;19.646;2023-04-25T05:47:16;15.00;;;8.00;;
70337;SDS011;57757;53.198;19.646;2023-04-25T05:49:44;11.20;;;6.00;;
70337;SDS011;57757;53.198;19.646;2023-04-25T05:52:11;11.50;;;7.60;;
70337;SDS011;57757;53.198;19.646;2023-04-25T05:54:41;15.20;;;8.60;;
70337;SDS011;57757;53.198;19.646;2023-04-25T05:59:59;11.50;;;6.40;;
70337;SDS011;57757;53.198;19.646;2023-04-25T06:02:33;26.10;;;12.00;;
70337;SDS011;57757;53.198;19.646;2023-04-25T06:05:04;16.40;;;8.60;;
70337;SDS011;57757;53.198;19.646;2023-04-25T06:07:38;11.90;;;6.70;;
70337;SDS011;57757;53.198;19.646;2023-04-25T06:10:06;11.80;;;6.10;;
70337;SDS011;57757;53.198;19.646;2023-04-25T06:12:35;10.30;;;6.00;;
70337;SDS011;57757;53.198;19.646;2023-04-25T06:15:04;10.70;;;5.80;;
70337;SDS011;57757;53.198;19.646;2023-04-25T06:17:52;9.50;;;5.30;;
70337;SDS011;57757;53.198;19.646;2023-04-25T06:20:20;11.20;;;5.80;;
70337;SDS011;57757;53.198;19.646;2023-04-25T06:22:51;10.50;;;5.90;;
70337;SDS011;57757;53.198;19.646;2023-04-25T06:25:19;10.10;;;5.70;;
70337;SDS011;57757;53.198;19.646;2023-04-25T06:27:47;15.30;;;7.30;;
70337;SDS011;57757;53.198;19.646;2023-04-25T06:30:16;15.30;;;5.30;;
70337;SDS011;57757;53.198;19.646;2023-04-25T06:32:45;14.80;;;6.00;;
70337;SDS011;57757;53.198;19.646;2023-04-25T06:35:13;23.10;;;9.10;;
70337;SDS011;57757;53.198;19.646;2023-04-25T06:37:41;14.40;;;5.80;;
70337;SDS011;57757;53.198;19.646;2023-04-25T06:40:08;19.10;;;7.40;;
70337;SDS011;57757;53.198;19.646;2023-04-25T06:42:36;29.70;;;10.40;;
70337;SDS011;57757;53.198;19.646;2023-04-25T06:45:07;33.70;;;11.80;;
70337;SDS011;57757;53.198;19.646;2023-04-25T06:47:35;31.80;;;9.70;;
70337;SDS011;57757;53.198;19.646;2023-04-25T06:50:03;24.50;;;7.90;;
70337;SDS011;57757;53.198;19.646;2023-04-25T06:52:31;31.70;;;10.20;;
70337;SDS011;57757;53.198;19.646;2023-04-25T06:54:58;39.50;;;10.20;;
70337;SDS011;57757;53.198;19.646;2023-04-25T06:57:26;21.60;;;6.70;;
70337;SDS011;57757;53.198;19.646;2023-04-25T06:59:53;21.40;;;7.40;;
70337;SDS011;57757;53.198;19.646;2023-04-25T07:02:21;14.50;;;5.80;;
70337;SDS011;57757;53.198;19.646;2023-04-25T07:04:55;13.80;;;6.90;;
70337;SDS011;57757;53.198;19.646;2023-04-25T07:07:26;16.70;;;8.50;;
70337;SDS011;57757;53.198;19.646;2023-04-25T07:09:54;11.60;;;6.50;;
70337;SDS011;57757;53.198;19.646;2023-04-25T07:12:22;11.80;;;6.30;;
70337;SDS011;57757;53.198;19.646;2023-04-25T07:14:50;11.40;;;5.40;;
70337;SDS011;57757;53.198;19.646;2023-04-25T07:17:17;12.20;;;5.00;;
70337;SDS011;57757;53.198;19.646;2023-04-25T07:19:45;12.60;;;5.10;;
70337;SDS011;57757;53.198;19.646;2023-04-25T07:22:12;12.50;;;5.80;;
70337;SDS011;57757;53.198;19.646;2023-04-25T07:24:40;11.10;;;4.90;;
70337;SDS011;57757;53.198;19.646;2023-04-25T07:27:08;10.90;;;5.10;;
70337;SDS011;57757;53.198;19.646;2023-04-25T07:29:36;15.90;;;7.00;;
70337;SDS011;57757;53.198;19.646;2023-04-25T07:32:04;13.90;;;4.90;;
70337;SDS011;57757;53.198;19.646;2023-04-25T07:34:32;10.30;;;4.40;;
70337;SDS011;57757;53.198;19.646;2023-04-25T07:37:00;10.50;;;4.00;;
70337;SDS011;57757;53.198;19.646;2023-04-25T07:39:27;10.20;;;4.90;;
70337;SDS011;57757;53.198;19.646;2023-04-25T07:41:55;10.50;;;4.50;;
70337;SDS011;57757;53.198;19.646;2023-04-25T07:44:23;10.50;;;4.20;;
70337;SDS011;57757;53.198;19.646;2023-04-25T07:46:51;14.70;;;7.40;;
70337;SDS011;57757;53.198;19.646;2023-04-25T07:49:19;12.00;;;4.20;;
70337;SDS011;57757;53.198;19.646;2023-04-25T07:51:47;14.80;;;5.00;;
70337;SDS011;57757;53.198;19.646;2023-04-25T07:54:15;11.80;;;5.40;;
70337;SDS011;57757;53.198;19.646;2023-04-25T07:56:45;16.90;;;7.70;;
70337;SDS011;57757;53.198;19.646;2023-04-25T07:59:20;15.20;;;6.10;;
70337;SDS011;57757;53.198;19.646;2023-04-25T08:01:47;10.40;;;5.30;;
70337;SDS011;57757;53.198;19.646;2023-04-25T08:04:17;10.40;;;4.40;;
70337;SDS011;57757;53.198;19.646;2023-04-25T08:06:45;12.60;;;4.80;;
70337;SDS011;57757;53.198;19.646;2023-04-25T08:09:13;10.50;;;4.40;;
70337;SDS011;57757;53.198;19.646;2023-04-25T08:11:41;10.40;;;4.80;;
70337;SDS011;57757;53.198;19.646;2023-04-25T08:14:09;10.00;;;4.60;;
70337;SDS011;57757;53.198;19.646;2023-04-25T08:16:37;12.00;;;5.50;;
70337;SDS011;57757;53.198;19.646;2023-04-25T08:19:04;12.00;;;6.00;;
70337;SDS011;57757;53.198;19.646;2023-04-25T08:21:32;10.60;;;5.80;;
70337;SDS011;57757;53.198;19.646;2023-04-25T08:24:00;8.70;;;4.10;;
70337;SDS011;57757;53.198;19.646;2023-04-25T08:26:30;11.40;;;5.00;;
70337;SDS011;57757;53.198;19.646;2023-04-25T08:28:58;9.80;;;4.70;;
70337;SDS011;57757;53.198;19.646;2023-04-25T08:31:25;24.00;;;12.50;;
70337;SDS011;57757;53.198;19.646;2023-04-25T08:33:56;12.60;;;6.30;;
70337;SDS011;57757;53.198;19.646;2023-04-25T08:36:24;12.80;;;5.20;;
70337;SDS011;57757;53.198;19.646;2023-04-25T08:39:06;9.60;;;4.10;;
70337;SDS011;57757;53.198;19.646;2023-04-25T08:41:36;9.50;;;3.90;;
70337;SDS011;57757;53.198;19.646;2023-04-25T08:44:04;10.20;;;3.90;;
70337;SDS011;57757;53.198;19.646;2023-04-25T08:46:36;9.40;;;4.20;;
70337;SDS011;57757;53.198;19.646;2023-04-25T08:49:07;9.70;;;3.90;;
70337;SDS011;57757;53.198;19.646;2023-04-25T08:51:45;8.70;;;3.90;;
70337;SDS011;57757;53.198;19.646;2023-04-25T08:54:14;9.60;;;3.50;;
70337;SDS011;57757;53.198;19.646;2023-04-25T08:57:02;7.00;;;3.30;;
70337;SDS011;57757;53.198;19.646;2023-04-25T08:59:32;8.00;;;3.50;;
70337;SDS011;57757;53.198;19.646;2023-04-25T09:02:05;8.60;;;4.30;;
70337;SDS011;57757;53.198;19.646;2023-04-25T09:04:34;9.60;;;4.00;;
70337;SDS011;57757;53.198;19.646;2023-04-25T09:07:16;8.70;;;3.60;;
70337;SDS011;57757;53.198;19.646;2023-04-25T09:09:46;9.80;;;3.90;;
70337;SDS011;57757;53.198;19.646;2023-04-25T09:12:19;10.40;;;4.30;;
70337;SDS011;57757;53.198;19.646;2023-04-25T09:17:31;7.70;;;3.80;;
70337;SDS011;57757;53.198;19.646;2023-04-25T09:20:06;9.90;;;4.00;;
70337;SDS011;57757;53.198;19.646;2023-04-25T09:22:36;31.30;;;15.40;;
70337;SDS011;57757;53.198;19.646;2023-04-25T09:25:11;24.50;;;11.40;;
70337;SDS011;57757;53.198;19.646;2023-04-25T09:30:31;12.30;;;5.70;;
70337;SDS011;57757;53.198;19.646;2023-04-25T09:33:08;10.40;;;4.90;;
70337;SDS011;57757;53.198;19.646;2023-04-25T09:35:39;11.90;;;4.60;;
70337;SDS011;57757;53.198;19.646;2023-04-25T09:38:11;11.50;;;4.40;;
70337;SDS011;57757;53.198;19.646;2023-04-25T09:40:41;7.80;;;3.30;;
70337;SDS011;57757;53.198;19.646;2023-04-25T09:45:48;7.20;;;3.40;;
70337;SDS011;57757;53.198;19.646;2023-04-25T09:48:19;9.40;;;3.50;;
70337;SDS011;57757;53.198;19.646;2023-04-25T09:53:36;11.60;;;5.40;;
70337;SDS011;57757;53.198;19.646;2023-04-25T09:56:07;9.40;;;3.90;;
70337;SDS011;57757;53.198;19.646;2023-04-25T09:58:37;11.40;;;4.60;;
70337;SDS011;57757;53.198;19.646;2023-04-25T10:01:06;9.60;;;3.50;;
70337;SDS011;57757;53.198;19.646;2023-04-25T10:03:36;9.90;;;3.80;;
70337;SDS011;57757;53.198;19.646;2023-04-25T10:06:14;15.00;;;5.60;;
70337;SDS011;57757;53.198;19.646;2023-04-25T10:08:46;34.10;;;12.60;;
70337;SDS011;57757;53.198;19.646;2023-04-25T10:11:19;20.30;;;9.10;;
70337;SDS011;57757;53.198;19.646;2023-04-25T10:13:50;15.20;;;7.10;;
70337;SDS011;57757;53.198;19.646;2023-04-25T10:16:24;8.90;;;4.90;;
70337;SDS011;57757;53.198;19.646;2023-04-25T10:18:52;11.00;;;6.20;;
70337;SDS011;57757;53.198;19.646;2023-04-25T10:21:20;10.80;;;5.50;;
70337;SDS011;57757;53.198;19.646;2023-04-25T10:23:49;11.80;;;4.70;;
70337;SDS011;57757;53.198;19.646;2023-04-25T10:26:18;17.80;;;6.20;;
70337;SDS011;57757;53.198;19.646;2023-04-25T10:31:30;10.00;;;3.50;;
70337;SDS011;57757;53.198;19.646;2023-04-25T10:33:59;10.00;;;3.90;;
70337;SDS011;57757;53.198;19.646;2023-04-25T10:36:31;8.10;;;4.00;;
70337;SDS011;57757;53.198;19.646;2023-04-25T10:39:03;9.80;;;4.90;;
70337;SDS011;57757;53.198;19.646;2023-04-25T10:41:46;12.30;;;4.40;;
70337;SDS011;57757;53.198;19.646;2023-04-25T10:44:15;10.40;;;4.80;;
70337;SDS011;57757;53.198;19.646;2023-04-25T10:46:44;11.10;;;6.80;;
70337;SDS011;57757;53.198;19.646;2023-04-25T10:57:27;9.00;;;3.50;;
70337;SDS011;57757;53.198;19.646;2023-04-25T11:00:00;20.70;;;10.00;;
70337;SDS011;57757;53.198;19.646;2023-04-25T11:02:36;11.00;;;4.50;;
70337;SDS011;57757;53.198;19.646;2023-04-25T11:08:14;8.30;;;3.50;;
70337;SDS011;57757;53.198;19.646;2023-04-25T11:10:53;18.10;;;3.50;;
70337;SDS011;57757;53.198;19.646;2023-04-25T11:13:22;9.80;;;3.10;;
70337;SDS011;57757;53.198;19.646;2023-04-25T11:15:51;8.40;;;3.40;;
70337;SDS011;57757;53.198;19.646;2023-04-25T11:18:40;18.10;;;3.80;;
70337;SDS011;57757;53.198;19.646;2023-04-25T11:21:09;8.50;;;2.90;;
70337;SDS011;57757;53.198;19.646;2023-04-25T11:23:38;13.90;;;3.70;;
70337;SDS011;57757;53.198;19.646;2023-04-25T11:26:06;10.40;;;3.20;;
70337;SDS011;57757;53.198;19.646;2023-04-25T11:28:35;9.00;;;3.10;;
70337;SDS011;57757;53.198;19.646;2023-04-25T11:31:04;8.40;;;3.10;;
70337;SDS011;57757;53.198;19.646;2023-04-25T11:33:31;8.20;;;3.00;;
70337;SDS011;57757;53.198;19.646;2023-04-25T11:35:59;13.10;;;3.20;;
70337;SDS011;57757;53.198;19.646;2023-04-25T11:38:27;7.40;;;2.60;;
70337;SDS011;57757;53.198;19.646;2023-04-25T11:40:56;10.40;;;3.60;;
70337;SDS011;57757;53.198;19.646;2023-04-25T11:43:25;9.50;;;2.70;;
70337;SDS011;57757;53.198;19.646;2023-04-25T11:45:53;8.60;;;3.00;;
70337;SDS011;57757;53.198;19.646;2023-04-25T11:48:21;7.40;;;2.70;;
70337;SDS011;57757;53.198;19.646;2023-04-25T11:51:08;6.30;;;2.40;;
70337;SDS011;57757;53.198;19.646;2023-04-25T11:53:36;10.10;;;3.40;;
70337;SDS011;57757;53.198;19.646;2023-04-25T11:56:11;8.30;;;2.80;;
70337;SDS011;57757;53.198;19.646;2023-04-25T12:01:31;7.20;;;2.20;;
70337;SDS011;57757;53.198;19.646;2023-04-25T12:06:53;8.30;;;2.20;;
70337;SDS011;57757;53.198;19.646;2023-04-25T12:09:30;9.50;;;3.10;;
70337;SDS011;57757;53.198;19.646;2023-04-25T12:11:59;9.40;;;3.50;;
70337;SDS011;57757;53.198;19.646;2023-04-25T12:14:34;8.40;;;3.00;;
70337;SDS011;57757;53.198;19.646;2023-04-25T12:17:03;8.60;;;3.50;;
70337;SDS011;57757;53.198;19.646;2023-04-25T12:19:36;10.80;;;4.10;;
70337;SDS011;57757;53.198;19.646;2023-04-25T12:24:52;40.60;;;17.40;;
70337;SDS011;57757;53.198;19.646;2023-04-25T12:27:23;21.20;;;8.40;;
70337;SDS011;57757;53.198;19.646;2023-04-25T12:29:54;20.80;;;9.90;;
70337;SDS011;57757;53.198;19.646;2023-04-25T12:32:23;17.10;;;6.70;;
70337;SDS011;57757;53.198;19.646;2023-04-25T12:34:51;15.00;;;4.70;;
70337;SDS011;57757;53.198;19.646;2023-04-25T12:37:19;12.90;;;5.40;;
70337;SDS011;57757;53.198;19.646;2023-04-25T12:39:46;10.10;;;3.90;;
70337;SDS011;57757;53.198;19.646;2023-04-25T12:42:14;11.90;;;4.70;;
70337;SDS011;57757;53.198;19.646;2023-04-25T12:44:42;13.00;;;4.80;;
70337;SDS011;57757;53.198;19.646;2023-04-25T12:47:11;12.00;;;5.30;;
70337;SDS011;57757;53.198;19.646;2023-04-25T12:49:39;10.80;;;4.20;;
70337;SDS011;57757;53.198;19.646;2023-04-25T12:52:10;11.50;;;5.80;;
70337;SDS011;57757;53.198;19.646;2023-04-25T12:54:40;11.30;;;6.20;;
70337;SDS011;57757;53.198;19.646;2023-04-25T12:57:08;11.40;;;5.80;;
70337;SDS011;57757;53.198;19.646;2023-04-25T12:59:35;14.40;;;6.60;;
70337;SDS011;57757;53.198;19.646;2023-04-25T13:02:03;17.60;;;8.40;;
70337;SDS011;57757;53.198;19.646;2023-04-25T13:04:32;13.00;;;4.50;;
70337;SDS011;57757;53.198;19.646;2023-04-25T13:07:00;9.40;;;3.50;;
70337;SDS011;57757;53.198;19.646;2023-04-25T13:09:28;18.70;;;7.60;;
70337;SDS011;57757;53.198;19.646;2023-04-25T13:11:56;19.70;;;8.20;;
70337;SDS011;57757;53.198;19.646;2023-04-25T13:14:26;8.60;;;3.30;;
70337;SDS011;57757;53.198;19.646;2023-04-25T13:16:53;8.60;;;3.40;;
70337;SDS011;57757;53.198;19.646;2023-04-25T13:19:22;8.80;;;3.30;;
70337;SDS011;57757;53.198;19.646;2023-04-25T13:21:49;8.20;;;3.30;;
70337;SDS011;57757;53.198;19.646;2023-04-25T13:24:17;13.20;;;4.80;;
70337;SDS011;57757;53.198;19.646;2023-04-25T13:26:44;14.40;;;6.10;;
70337;SDS011;57757;53.198;19.646;2023-04-25T13:29:12;26.70;;;13.50;;
70337;SDS011;57757;53.198;19.646;2023-04-25T13:31:40;12.70;;;8.50;;
70337;SDS011;57757;53.198;19.646;2023-04-25T13:34:08;13.60;;;6.80;;
70337;SDS011;57757;53.198;19.646;2023-04-25T13:36:35;15.50;;;7.60;;
70337;SDS011;57757;53.198;19.646;2023-04-25T13:39:03;61.10;;;28.30;;
70337;SDS011;57757;53.198;19.646;2023-04-25T13:41:34;29.80;;;12.90;;
70337;SDS011;57757;53.198;19.646;2023-04-25T13:44:02;13.30;;;5.00;;
70337;SDS011;57757;53.198;19.646;2023-04-25T13:46:29;34.30;;;13.60;;
70337;SDS011;57757;53.198;19.646;2023-04-25T13:49:13;31.60;;;14.90;;
70337;SDS011;57757;53.198;19.646;2023-04-25T13:51:41;15.60;;;7.60;;
70337;SDS011;57757;53.198;19.646;2023-04-25T13:54:10;16.80;;;9.70;;
70337;SDS011;57757;53.198;19.646;2023-04-25T13:56:38;16.10;;;7.70;;
70337;SDS011;57757;53.198;19.646;2023-04-25T13:59:05;21.40;;;8.40;;
70337;SDS011;57757;53.198;19.646;2023-04-25T14:01:33;18.70;;;8.20;;
70337;SDS011;57757;53.198;19.646;2023-04-25T14:04:02;26.10;;;11.60;;
70337;SDS011;57757;53.198;19.646;2023-04-25T14:06:33;34.40;;;16.30;;
70337;SDS011;57757;53.198;19.646;2023-04-25T14:09:02;20.40;;;10.30;;
70337;SDS011;57757;53.198;19.646;2023-04-25T14:11:36;10.90;;;5.50;;
70337;SDS011;57757;53.198;19.646;2023-04-25T14:14:04;19.80;;;12.30;;
70337;SDS011;57757;53.198;19.646;2023-04-25T14:16:31;21.80;;;9.50;;
70337;SDS011;57757;53.198;19.646;2023-04-25T14:18:59;12.50;;;6.20;;
70337;SDS011;57757;53.198;19.646;2023-04-25T14:21:27;19.20;;;5.50;;
70337;SDS011;57757;53.198;19.646;2023-04-25T14:23:55;13.90;;;5.30;;
70337;SDS011;57757;53.198;19.646;2023-04-25T14:26:23;16.60;;;5.20;;
70337;SDS011;57757;53.198;19.646;2023-04-25T14:28:51;13.90;;;4.20;;
70337;SDS011;57757;53.198;19.646;2023-04-25T14:31:19;18.90;;;5.00;;
70337;SDS011;57757;53.198;19.646;2023-04-25T14:33:47;11.80;;;5.80;;
70337;SDS011;57757;53.198;19.646;2023-04-25T14:36:15;12.20;;;6.30;;
70337;SDS011;57757;53.198;19.646;2023-04-25T14:38:43;21.60;;;12.60;;
70337;SDS011;57757;53.198;19.646;2023-04-25T14:41:10;13.90;;;6.50;;
70337;SDS011;57757;53.198;19.646;2023-04-25T14:43:38;10.80;;;4.80;;
70337;SDS011;57757;53.198;19.646;2023-04-25T14:46:08;14.30;;;6.30;;
70337;SDS011;57757;53.198;19.646;2023-04-25T14:48:36;13.20;;;6.10;;
70337;SDS011;57757;53.198;19.646;2023-04-25T14:51:04;13.70;;;6.10;;
70337;SDS011;57757;53.198;19.646;2023-04-25T14:53:32;15.50;;;6.50;;
70337;SDS011;57757;53.198;19.646;2023-04-25T14:55:59;11.40;;;4.70;;
70337;SDS011;57757;53.198;19.646;2023-04-25T14:58:27;18.80;;;6.30;;
70337;SDS011;57757;53.198;19.646;2023-04-25T15:00:55;21.70;;;10.80;;
70337;SDS011;57757;53.198;19.646;2023-04-25T15:03:23;39.60;;;22.30;;
70337;SDS011;57757;53.198;19.646;2023-04-25T15:05:51;22.00;;;11.50;;
70337;SDS011;57757;53.198;19.646;2023-04-25T15:08:20;26.70;;;17.60;;
70337;SDS011;57757;53.198;19.646;2023-04-25T15:10:47;9.10;;;7.20;;